Ontario, Indiana
Current Conditions -  °F | °C
As of 12:55 AM on Tuesday 27 Jan 2015 (Local Time) from KIRS Reporting Station
Overcast Overcast  
Wind Chill: -7°   Ceiling: 9000
Heat Index: -7°   Visibility: 10mi
Dew Point: -12°   Wind: 0mph
Humidity: 68%   Direction: NA
Pressure: 29.92"   Gusts: NA
Location:  41.7293°N, 85.4292°W
Report Text: KIRS 270555Z AUTO 00000KT 10SM SCT080 OVC090 M07/M12 A2992 RMK AO2
Loading
Personal Weather Stations






























Interactive Weather Map New forecast layout! Learn more

10-Day Weather Forecast

Advertisements
Track Severe Weather on mobile